Terminal Aerodrome Forecast
Issued by NWS

Home | Current Version | Previous Version | Text Only | Print | Product List | Glossary On
Versions: 1 2 3 4 5 6 7 8 9 10 11 12
000
FTUS44 KLZK 271700 RRA
TAFPBF
TAF
KPBF 271749Z 2718/2818 10005KT 6SM -RA BR BKN004 BKN012
     FM271830 31011KT 5SM -RA BR BKN004 OVC012
     FM280000 35011KT 4SM -RA BR BKN009
     FM280900 34008KT 3SM BR BKN007 OVC015=

USA.gov is the U.S. government's official web portal to all federal, state and local government web resources and services.